Time;durP1;ratioP1;P1;durP2;ratioP2;P2;SDS_P1;SDS_P2;PMS_P1;PMS_P2;Temp;Humidity;BMP_temperature;BMP_pressure;BME280_temperature;BME280_humidity;BME280_pressure;Samples;Min_cycle;Max_cycle;Signal;HPM_P1;HPM_P2
2023/09/27 00:00:14;;;;;;;15.48;9.65;;;22.50;99.90;;;;;;5229249;28;20032;-73
2023/09/27 00:02:45;;;;;;;20.33;8.68;;;22.60;99.90;;;;;;5229379;28;20028;-73
2023/09/27 00:05:16;;;;;;;19.20;9.50;;;22.50;99.90;;;;;;5228757;28;20041;-73
2023/09/27 00:07:47;;;;;;;15.23;8.68;;;22.50;99.90;;;;;;5229102;28;20027;-73
2023/09/27 00:10:18;;;;;;;14.63;8.63;;;22.50;99.90;;;;;;5229220;28;20028;-73
2023/09/27 00:12:49;;;;;;;15.85;8.88;;;22.50;99.90;;;;;;5229014;28;20029;-73
2023/09/27 00:15:20;;;;;;;20.55;7.88;;;22.50;99.90;;;;;;5227786;28;20527;-74
2023/09/27 00:17:51;;;;;;;21.38;9.27;;;22.50;99.90;;;;;;5228333;28;20392;-73
2023/09/27 00:20:22;;;;;;;12.57;8.40;;;22.40;99.90;;;;;;5227497;28;20036;-73
2023/09/27 00:22:54;;;;;;;18.35;9.43;;;22.50;99.90;;;;;;5227405;28;20025;-74
2023/09/27 00:25:25;;;;;;;16.00;9.45;;;22.40;99.90;;;;;;5226011;28;20464;-73
2023/09/27 00:27:56;;;;;;;22.42;9.70;;;22.40;99.90;;;;;;5227330;28;20064;-73
2023/09/27 00:30:27;;;;;;;22.55;9.13;;;22.40;99.90;;;;;;5227093;28;20056;-74
2023/09/27 00:33:00;;;;;;;18.20;8.73;;;22.40;99.90;;;;;;5227697;28;20025;-74
2023/09/27 00:35:30;;;;;;;18.83;8.27;;;22.40;99.90;;;;;;5228365;28;20025;-73
2023/09/27 00:38:02;;;;;;;21.83;8.07;;;22.40;99.90;;;;;;5238428;28;20346;-73
2023/09/27 00:40:33;;;;;;;16.23;7.82;;;22.50;99.90;;;;;;5244899;28;20040;-73
2023/09/27 00:43:03;;;;;;;15.45;7.57;;;22.50;99.90;;;;;;5228301;28;20033;-74
2023/09/27 00:45:34;;;;;;;17.13;8.02;;;22.50;99.90;;;;;;5236274;28;20768;-73
2023/09/27 00:48:06;;;;;;;17.33;8.25;;;22.60;99.90;;;;;;5248526;28;20473;-73
2023/09/27 00:50:37;;;;;;;15.90;7.32;;;22.50;99.90;;;;;;5246943;28;20033;-73
2023/09/27 00:53:08;;;;;;;19.67;8.32;;;22.50;99.90;;;;;;5248797;28;20036;-74
2023/09/27 00:55:39;;;;;;;17.77;7.95;;;22.50;99.90;;;;;;5248599;28;20376;-73
2023/09/27 00:58:19;;;;;;;18.88;8.52;;;22.40;99.90;;;;;;5245496;28;20037;-73
2023/09/27 01:00:52;;;;;;;15.27;7.70;;;22.40;99.90;;;;;;5228145;28;20063;-73
2023/09/27 01:03:23;;;;;;;22.23;8.57;;;22.50;99.90;;;;;;5237106;28;20439;-73
2023/09/27 01:05:54;;;;;;;16.00;8.30;;;22.40;99.90;;;;;;5248617;28;20071;-73
2023/09/27 01:08:25;;;;;;;14.13;7.22;;;22.40;99.90;;;;;;5248727;28;20063;-73
2023/09/27 01:10:56;;;;;;;12.95;7.50;;;22.40;99.90;;;;;;5246284;28;20522;-73
2023/09/27 01:13:27;;;;;;;16.52;7.35;;;22.40;99.90;;;;;;5247937;28;20147;-73
2023/09/27 01:15:58;;;;;;;16.73;7.88;;;22.40;99.90;;;;;;5247338;28;20773;-73
2023/09/27 01:18:29;;;;;;;16.92;7.65;;;22.40;99.90;;;;;;5246944;28;20032;-74
2023/09/27 01:21:01;;;;;;;24.58;7.43;;;22.30;99.90;;;;;;5247355;28;20013;-74
2023/09/27 01:23:33;;;;;;;17.35;7.22;;;22.30;99.90;;;;;;5239728;28;20707;-73
2023/09/27 01:26:06;;;;;;;15.40;6.80;;;22.30;99.90;;;;;;5226123;28;20443;-74
2023/09/27 01:28:40;;;;;;;17.75;6.95;;;22.30;99.90;;;;;;5226632;28;20031;-73
2023/09/27 01:31:11;;;;;;;14.10;7.28;;;22.30;99.90;;;;;;5226082;28;20031;-73
2023/09/27 01:33:42;;;;;;;15.52;7.45;;;22.30;99.90;;;;;;5227392;28;20526;-73
2023/09/27 01:36:13;;;;;;;17.27;7.47;;;22.20;99.90;;;;;;5225963;28;20064;-73
2023/09/27 01:38:44;;;;;;;14.07;7.30;;;22.30;99.90;;;;;;5227174;28;20071;-74
2023/09/27 01:41:15;;;;;;;12.25;7.50;;;22.30;99.90;;;;;;5227048;28;20049;-73
2023/09/27 01:43:46;;;;;;;15.05;7.68;;;22.20;99.90;;;;;;5225927;28;20029;-73
2023/09/27 01:46:17;;;;;;;14.82;7.00;;;22.20;99.90;;;;;;5227065;28;20027;-73
2023/09/27 01:48:48;;;;;;;15.82;7.20;;;22.20;99.90;;;;;;5227128;28;20021;-73
2023/09/27 01:51:19;;;;;;;13.75;6.95;;;22.20;99.90;;;;;;5242826;28;20034;-74
2023/09/27 01:53:50;;;;;;;17.23;7.15;;;22.20;99.90;;;;;;5246399;28;20395;-73
2023/09/27 01:56:20;;;;;;;19.58;8.10;;;22.20;99.90;;;;;;5246612;28;20123;-74
2023/09/27 01:58:51;;;;;;;15.10;7.28;;;22.10;99.90;;;;;;5247480;28;20052;-73
2023/09/27 02:01:22;;;;;;;19.35;7.45;;;22.10;99.90;;;;;;5245212;28;20056;-73
2023/09/27 02:03:53;;;;;;;17.10;7.78;;;22.10;99.90;;;;;;5247703;28;20074;-74
2023/09/27 02:06:24;;;;;;;13.65;6.57;;;22.20;99.90;;;;;;5246781;28;20097;-74
2023/09/27 02:08:55;;;;;;;13.35;6.78;;;22.20;99.90;;;;;;5246839;28;20433;-74
2023/09/27 02:11:25;;;;;;;15.88;7.20;;;22.20;99.90;;;;;;5246042;28;20056;-74
2023/09/27 02:13:56;;;;;;;16.70;6.90;;;22.10;99.90;;;;;;5246013;28;20036;-74
2023/09/27 02:16:27;;;;;;;13.90;6.93;;;22.10;99.90;;;;;;5246070;28;20037;-73
2023/09/27 02:18:58;;;;;;;12.70;6.93;;;22.10;99.90;;;;;;5246238;28;20380;-73
2023/09/27 02:21:29;;;;;;;18.52;7.65;;;22.10;99.90;;;;;;5245771;28;20024;-73
2023/09/27 02:24:00;;;;;;;16.92;7.25;;;22.10;99.90;;;;;;5245567;28;20020;-73
2023/09/27 02:26:31;;;;;;;16.10;7.82;;;22.10;99.90;;;;;;5246909;28;20028;-73
2023/09/27 02:29:02;;;;;;;16.25;7.25;;;22.10;99.90;;;;;;5246008;28;20427;-73
2023/09/27 02:31:33;;;;;;;16.35;7.13;;;22.10;99.90;;;;;;5247751;28;20033;-74
2023/09/27 02:34:04;;;;;;;17.50;7.88;;;22.10;99.90;;;;;;5245654;28;20411;-73
2023/09/27 02:36:35;;;;;;;17.13;7.82;;;22.00;99.90;;;;;;5246962;28;20029;-73
2023/09/27 02:39:07;;;;;;;17.10;7.45;;;22.10;99.90;;;;;;5246547;28;20024;-74
2023/09/27 02:41:37;;;;;;;17.52;7.93;;;22.10;99.90;;;;;;5246835;28;20545;-73
2023/09/27 02:44:08;;;;;;;17.73;8.20;;;22.20;99.90;;;;;;5246647;28;20032;-73
2023/09/27 02:46:43;;;;;;;19.83;8.40;;;22.10;99.90;;;;;;5246733;28;20111;-73
2023/09/27 02:49:14;;;;;;;16.80;8.43;;;22.10;99.90;;;;;;5245228;28;20024;-73
2023/09/27 02:51:48;;;;;;;19.08;9.00;;;22.10;99.90;;;;;;5246684;28;20024;-73
2023/09/27 02:54:20;;;;;;;18.95;9.10;;;22.10;99.90;;;;;;5239351;28;20492;-73
2023/09/27 02:56:50;;;;;;;18.38;9.38;;;22.10;99.90;;;;;;5246444;28;20111;-73
2023/09/27 02:59:24;;;;;;;15.43;8.35;;;22.20;99.90;;;;;;5246491;28;20413;-73
2023/09/27 03:01:55;;;;;;;15.63;8.45;;;22.20;99.90;;;;;;5246090;28;20028;-73
2023/09/27 03:04:27;;;;;;;21.48;8.93;;;22.20;99.90;;;;;;5244894;28;20090;-73
2023/09/27 03:06:59;;;;;;;17.85;8.30;;;22.20;99.90;;;;;;5245176;28;20099;-74
2023/09/27 03:09:30;;;;;;;17.75;8.63;;;22.30;99.90;;;;;;5244064;28;20032;-73
2023/09/27 03:12:06;;;;;;;16.08;8.90;;;22.10;99.90;;;;;;5244953;28;20029;-73
2023/09/27 03:14:37;;;;;;;15.88;8.13;;;22.10;99.90;;;;;;5249805;28;20143;-73
2023/09/27 03:17:09;;;;;;;15.60;8.65;;;22.10;99.90;;;;;;5248565;28;20107;-74
2023/09/27 03:19:41;;;;;;;21.08;8.60;;;22.10;99.90;;;;;;5249697;28;20021;-73
2023/09/27 03:22:12;;;;;;;15.77;8.77;;;22.10;99.90;;;;;;5231167;28;20041;-73
2023/09/27 03:24:43;;;;;;;24.85;9.25;;;22.20;99.90;;;;;;5229588;28;20044;-73
2023/09/27 03:27:15;;;;;;;15.32;9.18;;;22.10;99.90;;;;;;5229714;28;20078;-73
2023/09/27 03:29:46;;;;;;;22.48;8.27;;;22.20;99.90;;;;;;5229682;28;20021;-73
2023/09/27 03:32:19;;;;;;;19.30;8.73;;;22.20;99.90;;;;;;5229795;28;20048;-73
2023/09/27 03:34:51;;;;;;;18.60;8.30;;;22.20;99.90;;;;;;5229630;28;20021;-76
2023/09/27 03:37:22;;;;;;;17.65;8.48;;;22.10;99.90;;;;;;5228056;28;20036;-75
2023/09/27 03:39:53;;;;;;;15.40;8.60;;;22.10;99.90;;;;;;5228388;28;20143;-74
2023/09/27 03:42:24;;;;;;;18.58;9.63;;;22.20;99.90;;;;;;5227491;28;20104;-73
2023/09/27 03:44:55;;;;;;;16.30;7.93;;;22.20;99.90;;;;;;5228954;28;20037;-74
2023/09/27 03:47:26;;;;;;;22.23;8.52;;;22.20;99.90;;;;;;5228217;28;20044;-74
2023/09/27 03:49:57;;;;;;;22.70;8.70;;;22.30;99.90;;;;;;5228588;28;20032;-75
2023/09/27 03:52:28;;;;;;;18.08;8.23;;;22.30;99.90;;;;;;5227627;28;20025;-74
2023/09/27 03:54:59;;;;;;;21.35;8.63;;;22.40;99.90;;;;;;5229013;28;20031;-74
2023/09/27 03:57:30;;;;;;;19.33;8.65;;;22.30;99.90;;;;;;5228774;28;20029;-74
2023/09/27 04:00:01;;;;;;;20.45;8.25;;;22.20;99.90;;;;;;5228496;28;20028;-74
2023/09/27 04:02:31;;;;;;;19.75;8.40;;;22.30;99.90;;;;;;5228099;28;20025;-74
2023/09/27 04:05:04;;;;;;;21.33;8.68;;;22.30;99.90;;;;;;5227694;28;20052;-75
2023/09/27 04:07:35;;;;;;;17.45;8.10;;;22.30;99.90;;;;;;5227778;28;20095;-74
2023/09/27 04:10:09;;;;;;;17.50;7.30;;;22.30;99.90;;;;;;5227502;28;20024;-74
2023/09/27 04:12:40;;;;;;;20.95;8.38;;;22.30;99.90;;;;;;5227787;28;20694;-74
2023/09/27 04:15:12;;;;;;;16.63;7.40;;;22.30;99.90;;;;;;5227566;28;20099;-73
2023/09/27 04:17:43;;;;;;;18.75;8.38;;;22.30;99.90;;;;;;5228430;28;20171;-74
2023/09/27 04:20:16;;;;;;;17.05;7.88;;;22.30;99.90;;;;;;5228640;28;20092;-74
2023/09/27 04:22:48;;;;;;;15.45;7.32;;;22.30;99.90;;;;;;5228600;28;20031;-74
2023/09/27 04:25:19;;;;;;;16.48;8.82;;;22.40;99.90;;;;;;5227429;28;20074;-74
2023/09/27 04:27:50;;;;;;;21.58;8.60;;;22.40;99.90;;;;;;5228487;28;20542;-74
2023/09/27 04:30:22;;;;;;;16.67;8.25;;;22.40;99.90;;;;;;5228291;28;20037;-74
2023/09/27 04:32:53;;;;;;;19.80;7.97;;;22.40;99.90;;;;;;5228605;28;20023;-74
2023/09/27 04:35:24;;;;;;;15.88;8.57;;;22.40;99.90;;;;;;5227144;28;20021;-74
2023/09/27 04:37:55;;;;;;;19.38;9.18;;;22.40;99.90;;;;;;5228639;28;20032;-74
2023/09/27 04:40:26;;;;;;;16.98;9.23;;;22.40;99.90;;;;;;5227922;28;20425;-74
2023/09/27 04:42:57;;;;;;;21.08;10.18;;;22.50;99.90;;;;;;5228432;28;20390;-74
2023/09/27 04:45:28;;;;;;;15.98;8.88;;;22.40;99.90;;;;;;5228256;28;20098;-73
2023/09/27 04:47:58;;;;;;;17.52;9.05;;;22.50;99.90;;;;;;5228463;28;20029;-74
2023/09/27 04:50:29;;;;;;;18.70;9.60;;;22.50;99.90;;;;;;5228400;28;20476;-73
2023/09/27 04:53:00;;;;;;;14.95;9.38;;;22.50;99.90;;;;;;5228075;28;20029;-74
2023/09/27 04:55:31;;;;;;;19.35;8.93;;;22.50;99.90;;;;;;5227321;28;20396;-74
2023/09/27 04:58:02;;;;;;;14.45;9.50;;;22.60;99.90;;;;;;5227242;28;20712;-73
2023/09/27 05:00:33;;;;;;;17.80;9.52;;;22.60;99.90;;;;;;5226711;28;20028;-73
2023/09/27 05:03:04;;;;;;;18.33;9.27;;;22.60;99.90;;;;;;5226714;28;20515;-74
2023/09/27 05:05:35;;;;;;;19.73;8.82;;;22.70;99.90;;;;;;5226607;28;20036;-74
2023/09/27 05:08:05;;;;;;;18.13;8.85;;;22.60;99.90;;;;;;5226452;28;20043;-74
2023/09/27 05:10:36;;;;;;;15.90;9.35;;;22.60;99.90;;;;;;5226469;28;20021;-73
2023/09/27 05:13:07;;;;;;;14.05;9.23;;;22.70;99.90;;;;;;5227255;28;20079;-73
2023/09/27 05:15:38;;;;;;;18.75;8.93;;;22.70;99.90;;;;;;5227554;28;20021;-74
2023/09/27 05:18:09;;;;;;;16.23;9.23;;;22.90;99.90;;;;;;5227660;28;20130;-74
2023/09/27 05:20:41;;;;;;;13.82;8.45;;;22.90;99.90;;;;;;5227497;28;20021;-74
2023/09/27 05:23:12;;;;;;;17.98;8.50;;;22.80;99.90;;;;;;5227512;28;20032;-73
2023/09/27 05:25:44;;;;;;;12.35;8.02;;;22.90;99.90;;;;;;5227161;28;20033;-74
2023/09/27 05:28:15;;;;;;;15.55;9.13;;;22.90;99.90;;;;;;5227255;28;20035;-74
2023/09/27 05:30:46;;;;;;;20.92;9.32;;;22.90;99.90;;;;;;5227226;28;20043;-74
2023/09/27 05:33:18;;;;;;;17.25;8.13;;;23.00;99.90;;;;;;5227284;28;20017;-73
2023/09/27 05:35:50;;;;;;;22.58;9.07;;;23.00;99.90;;;;;;5225748;28;20116;-73
2023/09/27 05:38:21;;;;;;;18.02;7.72;;;23.00;99.90;;;;;;5226527;28;20029;-74
2023/09/27 05:40:52;;;;;;;15.63;8.15;;;23.20;99.90;;;;;;5226680;28;20416;-74
2023/09/27 05:43:23;;;;;;;18.08;8.20;;;23.20;99.90;;;;;;5227056;28;20036;-74
2023/09/27 05:45:54;;;;;;;19.83;8.77;;;23.30;99.90;;;;;;5226986;28;20032;-73
2023/09/27 05:48:24;;;;;;;17.98;8.27;;;23.30;99.90;;;;;;5227066;28;20021;-74
2023/09/27 05:50:55;;;;;;;17.48;8.35;;;23.20;99.90;;;;;;5225378;28;20060;-74
2023/09/27 05:53:26;;;;;;;16.58;8.30;;;23.20;99.90;;;;;;5226061;28;20382;-74
2023/09/27 05:55:59;;;;;;;17.08;8.18;;;23.20;99.90;;;;;;5229959;28;20870;-74
2023/09/27 05:58:35;;;;;;;21.42;9.02;;;23.20;99.90;;;;;;5240539;28;20108;-73
2023/09/27 06:01:07;;;;;;;16.10;8.15;;;23.20;99.90;;;;;;5246287;28;20107;-74
2023/09/27 06:03:38;;;;;;;16.48;8.40;;;23.10;99.90;;;;;;5246233;28;20032;-74
2023/09/27 06:06:10;;;;;;;16.17;7.78;;;23.20;99.90;;;;;;5236696;28;20036;-75
2023/09/27 06:08:42;;;;;;;19.95;8.02;;;23.20;99.90;;;;;;5225108;28;20021;-74
2023/09/27 06:11:12;;;;;;;24.23;8.20;;;23.30;99.90;;;;;;5225953;28;20033;-74
2023/09/27 06:13:44;;;;;;;12.68;7.00;;;23.40;99.90;;;;;;5226101;28;20037;-73
2023/09/27 06:16:19;;;;;;;17.05;6.95;;;23.40;99.90;;;;;;5226399;28;20151;-73
2023/09/27 06:18:51;;;;;;;17.08;7.93;;;23.40;99.90;;;;;;5226236;28;20504;-74
2023/09/27 06:21:21;;;;;;;12.43;7.60;;;23.40;99.90;;;;;;5226301;28;20036;-74
2023/09/27 06:23:52;;;;;;;10.85;7.47;;;23.40;99.90;;;;;;5226231;28;20538;-74
2023/09/27 06:26:23;;;;;;;17.42;8.25;;;23.50;99.90;;;;;;5226166;28;20029;-74
2023/09/27 06:28:54;;;;;;;13.30;7.32;;;23.50;99.90;;;;;;5225478;28;20032;-74
2023/09/27 06:31:25;;;;;;;18.45;8.02;;;23.40;99.90;;;;;;5225451;28;20025;-73
2023/09/27 06:33:56;;;;;;;17.13;8.27;;;23.60;99.90;;;;;;5225395;28;20066;-74
2023/09/27 06:36:29;;;;;;;16.38;8.38;;;23.60;99.90;;;;;;5225426;28;20095;-74
2023/09/27 06:39:00;;;;;;;14.13;7.75;;;23.60;99.90;;;;;;5225810;28;20033;-74
2023/09/27 06:41:31;;;;;;;13.40;8.63;;;23.60;99.90;;;;;;5225779;28;20051;-76
2023/09/27 06:44:04;;;;;;;24.95;9.00;;;23.70;99.90;;;;;;5225911;28;20404;-75
2023/09/27 06:46:35;;;;;;;16.17;9.35;;;23.80;99.90;;;;;;5224546;28;20485;-76
2023/09/27 06:49:07;;;;;;;17.35;9.80;;;23.80;99.90;;;;;;5225597;28;20025;-76
2023/09/27 06:51:38;;;;;;;17.40;8.65;;;23.90;99.90;;;;;;5224564;28;20043;-75
2023/09/27 06:54:09;;;;;;;17.58;9.30;;;23.90;99.90;;;;;;5224725;28;20033;-76
2023/09/27 06:56:42;;;;;;;15.90;9.55;;;23.90;99.90;;;;;;5224584;28;20048;-75
2023/09/27 06:59:14;;;;;;;17.27;8.65;;;24.00;99.90;;;;;;5224443;28;20024;-76
2023/09/27 07:01:44;;;;;;;14.18;9.50;;;23.80;99.90;;;;;;5224493;28;20025;-75
2023/09/27 07:04:15;;;;;;;21.48;10.48;;;23.80;99.90;;;;;;5224132;28;20086;-76
2023/09/27 07:06:47;;;;;;;15.90;9.23;;;23.90;99.90;;;;;;5228668;28;20024;-75
2023/09/27 07:09:20;;;;;;;17.50;10.43;;;23.90;99.90;;;;;;5226477;28;20485;-76
2023/09/27 07:11:51;;;;;;;18.58;9.40;;;23.90;99.90;;;;;;5225202;28;20064;-76
2023/09/27 07:14:22;;;;;;;18.90;10.10;;;24.20;99.90;;;;;;5225506;28;20060;-76
2023/09/27 07:16:53;;;;;;;14.68;9.38;;;24.10;99.90;;;;;;5225579;28;20032;-76
2023/09/27 07:19:23;;;;;;;25.90;11.50;;;24.10;99.90;;;;;;5225597;28;20610;-76
2023/09/27 07:21:54;;;;;;;21.08;10.40;;;24.00;99.90;;;;;;5225571;28;20032;-75
2023/09/27 07:24:29;;;;;;;19.10;9.45;;;24.00;99.90;;;;;;5225481;28;20032;-76
2023/09/27 07:27:00;;;;;;;18.75;8.63;;;24.10;99.90;;;;;;5225531;28;20033;-75
2023/09/27 07:29:32;;;;;;;21.00;10.98;;;24.00;99.90;;;;;;5225601;28;20017;-75
2023/09/27 07:32:04;;;;;;;16.02;10.68;;;24.20;99.90;;;;;;5225659;28;20397;-75
2023/09/27 07:34:35;;;;;;;19.73;9.35;;;24.20;99.90;;;;;;5225113;28;20431;-75
2023/09/27 07:37:08;;;;;;;14.73;10.10;;;24.30;99.90;;;;;;5225557;28;20021;-76
2023/09/27 07:39:39;;;;;;;14.43;9.70;;;24.40;99.90;;;;;;5225267;28;20048;-75
2023/09/27 07:42:11;;;;;;;16.00;10.23;;;24.30;99.90;;;;;;5225420;28;20036;-75
2023/09/27 07:44:42;;;;;;;17.60;9.98;;;24.40;99.90;;;;;;5224062;28;20036;-74
2023/09/27 07:47:13;;;;;;;19.60;10.02;;;24.30;99.90;;;;;;5223763;28;20033;-74
2023/09/27 07:49:44;;;;;;;19.70;9.68;;;24.20;99.90;;;;;;5224389;28;20132;-74
2023/09/27 07:52:15;;;;;;;15.55;9.73;;;24.20;99.90;;;;;;5224038;28;20025;-74
2023/09/27 07:54:47;;;;;;;20.75;9.95;;;24.30;99.90;;;;;;5224168;28;20033;-74
2023/09/27 07:57:19;;;;;;;18.73;9.82;;;24.50;99.90;;;;;;5224178;28;20100;-74
2023/09/27 07:59:52;;;;;;;16.23;9.68;;;24.60;99.90;;;;;;5227684;28;20078;-74
2023/09/27 08:02:22;;;;;;;18.15;10.05;;;24.50;99.90;;;;;;5228612;28;20034;-75
2023/09/27 08:04:55;;;;;;;14.23;9.82;;;24.70;99.90;;;;;;5227559;28;20033;-74
2023/09/27 08:07:27;;;;;;;19.63;10.27;;;24.80;99.90;;;;;;5229238;28;20029;-74
2023/09/27 08:09:57;;;;;;;17.08;9.60;;;24.80;99.90;;;;;;5227385;28;20028;-74
2023/09/27 08:12:31;;;;;;;12.40;8.07;;;24.80;99.90;;;;;;5228355;28;20094;-74
2023/09/27 08:15:03;;;;;;;16.10;9.27;;;24.80;99.90;;;;;;5228557;28;20104;-73
2023/09/27 08:17:35;;;;;;;20.75;8.65;;;24.70;99.90;;;;;;5228643;28;20469;-74
2023/09/27 08:20:09;;;;;;;18.95;9.23;;;24.70;99.90;;;;;;5228694;28;20040;-74
2023/09/27 08:22:40;;;;;;;15.50;9.13;;;24.80;99.90;;;;;;5232753;28;20029;-74
2023/09/27 08:25:15;;;;;;;13.15;7.63;;;24.80;99.90;;;;;;5227777;28;20033;-74
2023/09/27 08:27:50;;;;;;;15.07;7.88;;;24.90;99.90;;;;;;5228307;28;20063;-75
2023/09/27 08:30:21;;;;;;;14.27;8.30;;;24.80;99.90;;;;;;5225604;28;20024;-74
2023/09/27 08:32:54;;;;;;;16.98;8.55;;;24.70;99.90;;;;;;5228262;28;20068;-75
2023/09/27 08:35:31;;;;;;;15.95;8.23;;;24.60;99.90;;;;;;5228114;28;20025;-75
2023/09/27 08:38:03;;;;;;;15.35;7.68;;;24.60;99.90;;;;;;5225808;28;20059;-75
2023/09/27 08:40:35;;;;;;;22.08;9.05;;;24.70;99.90;;;;;;5227266;28;20072;-75
2023/09/27 08:43:06;;;;;;;17.45;8.55;;;24.60;99.90;;;;;;5227142;28;20029;-74
2023/09/27 08:45:39;;;;;;;20.63;9.88;;;24.50;99.90;;;;;;5226679;28;20090;-74
2023/09/27 08:48:12;;;;;;;16.38;8.52;;;24.70;99.90;;;;;;5226388;28;20009;-75
2023/09/27 08:50:43;;;;;;;18.58;8.90;;;24.60;99.90;;;;;;5224888;28;20057;-74
2023/09/27 08:53:15;;;;;;;19.10;8.65;;;24.70;99.90;;;;;;5221869;28;20017;-74
2023/09/27 08:55:49;;;;;;;18.50;9.70;;;24.70;99.90;;;;;;5227569;28;20029;-74
2023/09/27 08:58:22;;;;;;;19.35;8.93;;;25.00;99.90;;;;;;5226748;28;20013;-74
2023/09/27 09:00:54;;;;;;;19.02;9.27;;;25.30;99.90;;;;;;5227009;28;20449;-74
2023/09/27 09:03:27;;;;;;;20.77;8.23;;;25.40;99.90;;;;;;5227543;28;20017;-75
2023/09/27 09:05:58;;;;;;;15.13;8.07;;;25.10;99.90;;;;;;5227384;28;20036;-73
2023/09/27 09:08:29;;;;;;;17.20;8.43;;;25.10;99.90;;;;;;5227407;28;20424;-74
2023/09/27 09:11:01;;;;;;;14.95;9.07;;;25.10;99.90;;;;;;5226385;28;20039;-74
2023/09/27 09:14:04;;;;;;;16.75;9.88;;;25.30;99.90;;;;;;5227062;28;20036;-75
2023/09/27 09:16:47;;;;;;;14.18;8.35;;;25.60;99.90;;;;;;5227198;28;20009;-74
2023/09/27 09:19:23;;;;;;;22.85;11.10;;;25.70;99.90;;;;;;5227602;28;20029;-74
2023/09/27 09:22:00;;;;;;;23.27;11.55;;;25.80;99.90;;;;;;5227536;28;20028;-74
2023/09/27 09:24:32;;;;;;;23.58;10.90;;;25.70;99.90;;;;;;5227585;28;20115;-74
2023/09/27 09:27:30;;;;;;;19.70;9.65;;;25.40;99.90;;;;;;5227428;28;20040;-74
2023/09/27 09:30:06;;;;;;;17.63;9.50;;;25.20;99.90;;;;;;5224519;28;20114;-74
2023/09/27 09:32:49;;;;;;;17.35;9.45;;;25.20;99.90;;;;;;5227291;28;20020;-75
2023/09/27 09:35:34;;;;;;;17.58;10.18;;;25.20;99.90;;;;;;5225452;28;20028;-74
2023/09/27 09:38:05;;;;;;;18.02;10.02;;;25.50;99.90;;;;;;5206424;28;20028;-74
2023/09/27 09:40:56;;;;;;;16.85;9.95;;;26.10;99.90;;;;;;5204995;28;20045;-75
2023/09/27 09:43:33;;;;;;;15.98;9.50;;;25.90;99.90;;;;;;5205534;28;20026;-74
2023/09/27 09:46:08;;;;;;;22.08;9.32;;;25.80;99.90;;;;;;5205526;28;20030;-74
2023/09/27 09:48:40;;;;;;;19.85;11.05;;;25.50;99.90;;;;;;5205494;28;20025;-74
2023/09/27 09:51:11;;;;;;;23.30;10.82;;;25.30;99.90;;;;;;5206092;28;20040;-74
2023/09/27 09:53:42;;;;;;;21.25;10.05;;;25.50;99.90;;;;;;5206238;28;20559;-75
2023/09/27 09:56:14;;;;;;;15.18;9.57;;;26.20;99.90;;;;;;5204927;28;20542;-74
2023/09/27 09:59:07;;;;;;;14.77;9.38;;;26.20;99.90;;;;;;5206103;28;20119;-74
2023/09/27 10:01:39;;;;;;;20.17;9.77;;;26.20;99.90;;;;;;5206309;28;20533;-75
2023/09/27 10:04:11;;;;;;;20.73;10.45;;;26.00;99.90;;;;;;5205819;28;20044;-74
2023/09/27 10:06:43;;;;;;;17.92;10.07;;;25.80;99.90;;;;;;5205909;28;20052;-74
2023/09/27 10:09:15;;;;;;;20.95;9.60;;;25.70;99.90;;;;;;5205833;28;20036;-74
2023/09/27 10:11:46;;;;;;;21.05;9.70;;;25.80;99.90;;;;;;5206008;28;20040;-74
2023/09/27 10:14:19;;;;;;;14.55;9.48;;;25.80;99.90;;;;;;5205928;28;20029;-75
2023/09/27 10:16:50;;;;;;;24.50;10.75;;;25.90;99.90;;;;;;5205938;28;20021;-74
2023/09/27 10:19:28;;;;;;;16.27;9.85;;;26.00;99.90;;;;;;5219182;28;20044;-75
2023/09/27 10:22:05;;;;;;;16.50;9.43;;;25.80;99.90;;;;;;5225605;28;20020;-74
2023/09/27 10:24:42;;;;;;;19.42;9.25;;;25.70;99.90;;;;;;5226262;28;20127;-74
2023/09/27 10:27:13;;;;;;;15.70;8.50;;;25.70;99.90;;;;;;5226415;28;20154;-74
2023/09/27 10:29:57;;;;;;;20.80;9.30;;;25.70;99.90;;;;;;5226078;28;20600;-74
2023/09/27 10:32:28;;;;;;;18.73;8.65;;;25.80;99.90;;;;;;5225422;28;20024;-75
2023/09/27 10:35:16;;;;;;;19.45;9.10;;;25.60;99.90;;;;;;5225781;28;20025;-74
2023/09/27 10:37:58;;;;;;;18.33;9.50;;;25.80;99.90;;;;;;5225245;28;20678;-74
2023/09/27 10:40:43;;;;;;;17.30;8.55;;;25.80;99.90;;;;;;5224673;28;20370;-75
2023/09/27 10:43:36;;;;;;;13.20;7.65;;;25.60;99.90;;;;;;5224826;28;20025;-75
2023/09/27 10:46:08;;;;;;;19.00;9.73;;;25.40;99.90;;;;;;5224619;28;20047;-74
2023/09/27 10:48:42;;;;;;;18.80;8.73;;;25.40;99.90;;;;;;5224666;28;20017;-74
2023/09/27 10:51:13;;;;;;;19.35;8.07;;;25.40;99.90;;;;;;5225393;28;20119;-74
2023/09/27 10:53:45;;;;;;;17.35;7.85;;;25.40;99.90;;;;;;5224419;28;20112;-74
2023/09/27 10:56:17;;;;;;;16.00;8.40;;;25.60;99.90;;;;;;5225976;28;20067;-74
2023/09/27 10:58:52;;;;;;;19.80;8.85;;;25.60;99.90;;;;;;5225814;28;20083;-74
2023/09/27 11:01:23;;;;;;;14.75;8.43;;;25.50;99.90;;;;;;5225780;28;20037;-74
2023/09/27 11:04:01;;;;;;;22.67;9.90;;;25.40;99.90;;;;;;5225744;28;20504;-74
2023/09/27 11:06:32;;;;;;;21.80;8.63;;;25.40;99.90;;;;;;5225534;28;20127;-74
2023/09/27 11:09:12;;;;;;;22.15;8.55;;;25.50;99.90;;;;;;5225514;28;20120;-74
2023/09/27 11:11:43;;;;;;;12.68;7.80;;;25.30;99.90;;;;;;5225676;28;20075;-74
2023/09/27 11:14:29;;;;;;;17.65;9.20;;;25.30;99.90;;;;;;5225871;28;20061;-74
2023/09/27 11:17:22;;;;;;;18.50;8.88;;;25.30;99.90;;;;;;5225645;28;20040;-74
2023/09/27 11:19:53;;;;;;;13.27;8.07;;;25.40;99.90;;;;;;5225894;28;20036;-74
2023/09/27 11:22:28;;;;;;;15.75;8.55;;;25.30;99.90;;;;;;5225658;28;20064;-74
2023/09/27 11:24:59;;;;;;;17.83;7.45;;;25.80;99.90;;;;;;5225397;28;20396;-74
2023/09/27 11:27:30;;;;;;;17.77;8.93;;;25.80;99.90;;;;;;5225275;28;20017;-74
2023/09/27 11:30:01;;;;;;;18.45;8.90;;;25.70;99.90;;;;;;5225188;28;20112;-74
2023/09/27 11:32:50;;;;;;;17.92;8.00;;;25.80;99.90;;;;;;5224627;28;20028;-75
2023/09/27 11:35:21;;;;;;;16.60;9.10;;;26.00;99.90;;;;;;5233066;28;20501;-74
2023/09/27 11:38:09;;;;;;;16.63;8.55;;;25.80;99.90;;;;;;5227518;28;20021;-74
2023/09/27 11:40:43;;;;;;;21.80;8.10;;;25.60;99.90;;;;;;5226712;28;20489;-74
2023/09/27 11:43:14;;;;;;;12.50;9.20;;;25.40;99.90;;;;;;5228306;28;20029;-74
2023/09/27 11:45:47;;;;;;;15.45;8.18;;;25.40;99.90;;;;;;5228435;28;20090;-74
2023/09/27 11:48:32;;;;;;;18.15;8.80;;;25.50;99.90;;;;;;5229642;28;20469;-74
2023/09/27 11:51:04;;;;;;;24.00;9.23;;;25.30;99.90;;;;;;5229371;28;20033;-75
2023/09/27 11:53:35;;;;;;;15.77;8.52;;;25.40;99.90;;;;;;5229151;28;20029;-74
2023/09/27 11:56:26;;;;;;;17.88;8.65;;;25.30;99.90;;;;;;5228287;28;20172;-74
2023/09/27 12:04:54;;;;;;;;;;;25.10;99.90;;;;;;5224820;28;20036;-74
2023/09/27 12:07:44;;;;;;;17.45;10.40;;;25.00;99.90;;;;;;5228556;28;20253;-74
2023/09/27 12:10:16;;;;;;;;;;;25.00;99.90;;;;;;5208363;28;20432;-74
2023/09/27 12:12:48;;;;;;;17.75;9.75;;;24.90;99.90;;;;;;5210481;28;19936;-74
2023/09/27 12:15:19;;;;;;;13.15;9.73;;;25.00;99.90;;;;;;5228624;28;20028;-75
2023/09/27 12:17:50;;;;;;;12.90;9.93;;;25.00;99.90;;;;;;5228596;28;20375;-74
2023/09/27 12:20:21;;;;;;;14.48;8.13;;;25.00;99.90;;;;;;5228744;28;20032;-75
2023/09/27 12:22:53;;;;;;;16.00;9.32;;;25.10;99.90;;;;;;5228551;28;20025;-75
2023/09/27 12:25:24;;;;;;;14.95;8.98;;;25.40;99.90;;;;;;5227974;28;20044;-74
2023/09/27 12:27:55;;;;;;;14.98;8.27;;;26.00;99.90;;;;;;5228200;28;20029;-75
2023/09/27 12:30:27;;;;;;;15.32;6.75;;;26.00;99.90;;;;;;5227596;28;20082;-75
2023/09/27 12:32:58;;;;;;;19.10;6.07;;;26.00;99.90;;;;;;5226152;28;20029;-74
2023/09/27 12:35:30;;;;;;;15.95;5.97;;;26.20;99.90;;;;;;5226871;28;20036;-75
2023/09/27 12:38:06;;;;;;;11.80;5.55;;;26.40;99.90;;;;;;5227099;28;20033;-74
2023/09/27 12:40:37;;;;;;;11.75;5.57;;;26.40;99.90;;;;;;5226429;28;20083;-75
2023/09/27 12:43:09;;;;;;;13.98;6.68;;;26.50;99.90;;;;;;5226879;28;20068;-74
2023/09/27 12:45:40;;;;;;;13.40;7.15;;;26.40;99.90;;;;;;5224257;28;20029;-75
2023/09/27 12:48:12;;;;;;;13.88;7.80;;;26.50;99.90;;;;;;5227127;28;20021;-75
2023/09/27 12:50:45;;;;;;;13.20;7.25;;;26.00;99.90;;;;;;5227959;28;20507;-75
2023/09/27 12:53:17;;;;;;;13.52;6.70;;;25.80;99.90;;;;;;5227984;28;20048;-74
2023/09/27 12:55:50;;;;;;;11.13;6.35;;;25.80;99.90;;;;;;5228060;28;20033;-74
2023/09/27 12:58:22;;;;;;;16.25;7.32;;;25.80;99.90;;;;;;5223740;28;20025;-75
2023/09/27 13:00:53;;;;;;;16.73;7.07;;;25.70;99.90;;;;;;5229875;28;20078;-74
2023/09/27 13:03:24;;;;;;;15.65;7.88;;;25.60;99.90;;;;;;5227718;28;20021;-74
2023/09/27 13:05:57;;;;;;;12.27;6.22;;;25.70;99.90;;;;;;5227427;28;20029;-75
2023/09/27 13:08:28;;;;;;;14.32;6.05;;;25.50;99.90;;;;;;5227509;28;20025;-75